sensor_id;sensor_type;location;lat;lon;timestamp;P1;durP1;ratioP1;P2;durP2;ratioP2
81180;SDS011;70650;51.408;7.132;2023-09-08T00:02:00;8.50;;;3.53;;
81180;SDS011;70650;51.408;7.132;2023-09-08T00:04:25;8.15;;;4.05;;
81180;SDS011;70650;51.408;7.132;2023-09-08T00:06:51;7.57;;;3.42;;
81180;SDS011;70650;51.408;7.132;2023-09-08T00:09:16;8.00;;;3.88;;
81180;SDS011;70650;51.408;7.132;2023-09-08T00:11:41;8.00;;;3.67;;
81180;SDS011;70650;51.408;7.132;2023-09-08T00:14:07;10.50;;;4.07;;
81180;SDS011;70650;51.408;7.132;2023-09-08T00:16:32;7.78;;;3.65;;
81180;SDS011;70650;51.408;7.132;2023-09-08T00:18:58;11.02;;;4.15;;
81180;SDS011;70650;51.408;7.132;2023-09-08T00:21:24;8.90;;;4.20;;
81180;SDS011;70650;51.408;7.132;2023-09-08T00:23:50;10.27;;;4.68;;
81180;SDS011;70650;51.408;7.132;2023-09-08T00:26:16;9.05;;;4.10;;
81180;SDS011;70650;51.408;7.132;2023-09-08T00:28:41;7.95;;;4.18;;
81180;SDS011;70650;51.408;7.132;2023-09-08T00:31:07;8.50;;;3.70;;
81180;SDS011;70650;51.408;7.132;2023-09-08T00:33:32;9.10;;;4.47;;
81180;SDS011;70650;51.408;7.132;2023-09-08T00:35:58;10.17;;;4.20;;
81180;SDS011;70650;51.408;7.132;2023-09-08T00:38:24;9.13;;;4.40;;
81180;SDS011;70650;51.408;7.132;2023-09-08T00:40:50;9.50;;;4.47;;
81180;SDS011;70650;51.408;7.132;2023-09-08T00:43:17;8.55;;;4.05;;
81180;SDS011;70650;51.408;7.132;2023-09-08T00:45:42;8.10;;;3.80;;
81180;SDS011;70650;51.408;7.132;2023-09-08T00:48:09;9.13;;;3.80;;
81180;SDS011;70650;51.408;7.132;2023-09-08T00:50:36;7.97;;;4.10;;
81180;SDS011;70650;51.408;7.132;2023-09-08T00:53:04;8.35;;;3.97;;
81180;SDS011;70650;51.408;7.132;2023-09-08T00:55:31;9.18;;;3.85;;
81180;SDS011;70650;51.408;7.132;2023-09-08T00:57:57;9.77;;;4.63;;
81180;SDS011;70650;51.408;7.132;2023-09-08T01:00:24;9.45;;;4.07;;
81180;SDS011;70650;51.408;7.132;2023-09-08T01:02:50;10.40;;;4.53;;
81180;SDS011;70650;51.408;7.132;2023-09-08T01:05:16;7.97;;;3.75;;
81180;SDS011;70650;51.408;7.132;2023-09-08T01:07:44;10.68;;;4.55;;
81180;SDS011;70650;51.408;7.132;2023-09-08T01:10:11;11.18;;;4.50;;
81180;SDS011;70650;51.408;7.132;2023-09-08T01:12:37;8.63;;;4.07;;
81180;SDS011;70650;51.408;7.132;2023-09-08T01:15:04;8.93;;;4.50;;
81180;SDS011;70650;51.408;7.132;2023-09-08T01:17:33;10.02;;;4.53;;
81180;SDS011;70650;51.408;7.132;2023-09-08T01:20:01;10.05;;;4.63;;
81180;SDS011;70650;51.408;7.132;2023-09-08T01:22:45;10.18;;;4.93;;
81180;SDS011;70650;51.408;7.132;2023-09-08T01:25:22;10.25;;;4.60;;
81180;SDS011;70650;51.408;7.132;2023-09-08T01:27:52;9.52;;;4.40;;
81180;SDS011;70650;51.408;7.132;2023-09-08T01:30:19;8.50;;;4.30;;
81180;SDS011;70650;51.408;7.132;2023-09-08T01:32:46;9.40;;;4.53;;
81180;SDS011;70650;51.408;7.132;2023-09-08T01:35:13;9.70;;;4.68;;
81180;SDS011;70650;51.408;7.132;2023-09-08T01:37:40;8.95;;;4.50;;
81180;SDS011;70650;51.408;7.132;2023-09-08T01:40:07;8.15;;;4.45;;
81180;SDS011;70650;51.408;7.132;2023-09-08T01:42:33;10.13;;;5.15;;
81180;SDS011;70650;51.408;7.132;2023-09-08T01:44:59;9.53;;;5.13;;
81180;SDS011;70650;51.408;7.132;2023-09-08T01:47:24;11.30;;;4.80;;
81180;SDS011;70650;51.408;7.132;2023-09-08T01:49:49;10.32;;;4.30;;
81180;SDS011;70650;51.408;7.132;2023-09-08T01:52:15;10.47;;;4.83;;
81180;SDS011;70650;51.408;7.132;2023-09-08T01:54:40;9.07;;;4.25;;
81180;SDS011;70650;51.408;7.132;2023-09-08T01:57:05;7.90;;;4.30;;
81180;SDS011;70650;51.408;7.132;2023-09-08T01:59:31;8.88;;;4.40;;
81180;SDS011;70650;51.408;7.132;2023-09-08T02:01:57;11.20;;;4.72;;
81180;SDS011;70650;51.408;7.132;2023-09-08T02:04:23;9.90;;;4.57;;
81180;SDS011;70650;51.408;7.132;2023-09-08T02:06:52;10.10;;;4.70;;
81180;SDS011;70650;51.408;7.132;2023-09-08T02:09:17;9.00;;;4.97;;
81180;SDS011;70650;51.408;7.132;2023-09-08T02:11:42;8.88;;;4.82;;
81180;SDS011;70650;51.408;7.132;2023-09-08T02:14:07;9.77;;;4.83;;
81180;SDS011;70650;51.408;7.132;2023-09-08T02:16:35;9.18;;;4.32;;
81180;SDS011;70650;51.408;7.132;2023-09-08T02:19:00;8.90;;;4.75;;
81180;SDS011;70650;51.408;7.132;2023-09-08T02:21:25;8.25;;;4.35;;
81180;SDS011;70650;51.408;7.132;2023-09-08T02:23:51;10.10;;;4.93;;
81180;SDS011;70650;51.408;7.132;2023-09-08T02:26:16;9.38;;;5.05;;
81180;SDS011;70650;51.408;7.132;2023-09-08T02:28:42;9.80;;;5.22;;
81180;SDS011;70650;51.408;7.132;2023-09-08T02:31:07;10.53;;;5.27;;
81180;SDS011;70650;51.408;7.132;2023-09-08T02:33:32;10.55;;;5.00;;
81180;SDS011;70650;51.408;7.132;2023-09-08T02:36:04;12.18;;;5.00;;
81180;SDS011;70650;51.408;7.132;2023-09-08T02:38:31;10.20;;;5.38;;
81180;SDS011;70650;51.408;7.132;2023-09-08T02:40:57;10.05;;;5.00;;
81180;SDS011;70650;51.408;7.132;2023-09-08T02:43:23;11.43;;;4.88;;
81180;SDS011;70650;51.408;7.132;2023-09-08T02:45:49;11.13;;;5.10;;
81180;SDS011;70650;51.408;7.132;2023-09-08T02:48:14;11.00;;;5.00;;
81180;SDS011;70650;51.408;7.132;2023-09-08T02:50:40;8.80;;;4.72;;
81180;SDS011;70650;51.408;7.132;2023-09-08T02:53:06;10.77;;;5.50;;
81180;SDS011;70650;51.408;7.132;2023-09-08T02:55:32;9.23;;;4.93;;
81180;SDS011;70650;51.408;7.132;2023-09-08T02:57:57;10.67;;;4.87;;
81180;SDS011;70650;51.408;7.132;2023-09-08T03:00:22;10.20;;;4.87;;
81180;SDS011;70650;51.408;7.132;2023-09-08T03:02:47;9.50;;;5.15;;
81180;SDS011;70650;51.408;7.132;2023-09-08T03:05:13;10.00;;;5.00;;
81180;SDS011;70650;51.408;7.132;2023-09-08T03:07:38;11.88;;;5.40;;
81180;SDS011;70650;51.408;7.132;2023-09-08T03:10:04;12.48;;;5.72;;
81180;SDS011;70650;51.408;7.132;2023-09-08T03:12:30;10.60;;;5.40;;
81180;SDS011;70650;51.408;7.132;2023-09-08T03:14:56;11.55;;;5.53;;
81180;SDS011;70650;51.408;7.132;2023-09-08T03:17:21;9.65;;;4.75;;
81180;SDS011;70650;51.408;7.132;2023-09-08T03:19:47;11.65;;;5.20;;
81180;SDS011;70650;51.408;7.132;2023-09-08T03:22:13;9.88;;;4.90;;
81180;SDS011;70650;51.408;7.132;2023-09-08T03:24:39;10.63;;;4.93;;
81180;SDS011;70650;51.408;7.132;2023-09-08T03:27:04;9.77;;;4.97;;
81180;SDS011;70650;51.408;7.132;2023-09-08T03:29:30;13.40;;;5.30;;
81180;SDS011;70650;51.408;7.132;2023-09-08T03:31:55;9.30;;;4.90;;
81180;SDS011;70650;51.408;7.132;2023-09-08T03:34:20;10.38;;;4.95;;
81180;SDS011;70650;51.408;7.132;2023-09-08T03:36:48;9.52;;;4.82;;
81180;SDS011;70650;51.408;7.132;2023-09-08T03:39:15;8.63;;;4.45;;
81180;SDS011;70650;51.408;7.132;2023-09-08T03:41:40;10.30;;;5.30;;
81180;SDS011;70650;51.408;7.132;2023-09-08T03:44:05;10.00;;;4.78;;
81180;SDS011;70650;51.408;7.132;2023-09-08T03:46:31;10.98;;;4.65;;
81180;SDS011;70650;51.408;7.132;2023-09-08T03:48:56;9.65;;;5.00;;
81180;SDS011;70650;51.408;7.132;2023-09-08T03:51:25;10.63;;;5.55;;
81180;SDS011;70650;51.408;7.132;2023-09-08T03:53:51;11.63;;;5.60;;
81180;SDS011;70650;51.408;7.132;2023-09-08T03:56:17;9.60;;;5.07;;
81180;SDS011;70650;51.408;7.132;2023-09-08T03:58:42;10.10;;;5.07;;
81180;SDS011;70650;51.408;7.132;2023-09-08T04:01:07;10.53;;;5.13;;
81180;SDS011;70650;51.408;7.132;2023-09-08T04:03:34;10.97;;;5.63;;
81180;SDS011;70650;51.408;7.132;2023-09-08T04:05:59;10.68;;;5.63;;
81180;SDS011;70650;51.408;7.132;2023-09-08T04:08:24;10.45;;;5.28;;
81180;SDS011;70650;51.408;7.132;2023-09-08T04:10:50;8.70;;;4.53;;
81180;SDS011;70650;51.408;7.132;2023-09-08T04:13:15;11.57;;;4.80;;
81180;SDS011;70650;51.408;7.132;2023-09-08T04:15:40;10.50;;;5.20;;
81180;SDS011;70650;51.408;7.132;2023-09-08T04:18:06;9.30;;;4.70;;
81180;SDS011;70650;51.408;7.132;2023-09-08T04:20:31;11.65;;;4.72;;
81180;SDS011;70650;51.408;7.132;2023-09-08T04:22:56;9.20;;;4.75;;
81180;SDS011;70650;51.408;7.132;2023-09-08T04:25:22;10.75;;;5.05;;
81180;SDS011;70650;51.408;7.132;2023-09-08T04:27:47;11.52;;;4.68;;
81180;SDS011;70650;51.408;7.132;2023-09-08T04:30:12;9.57;;;4.28;;
81180;SDS011;70650;51.408;7.132;2023-09-08T04:32:38;10.23;;;4.80;;
81180;SDS011;70650;51.408;7.132;2023-09-08T04:35:04;9.50;;;3.93;;
81180;SDS011;70650;51.408;7.132;2023-09-08T04:37:30;9.88;;;4.43;;
81180;SDS011;70650;51.408;7.132;2023-09-08T04:39:56;9.50;;;4.60;;
81180;SDS011;70650;51.408;7.132;2023-09-08T04:42:22;11.57;;;5.00;;
81180;SDS011;70650;51.408;7.132;2023-09-08T04:44:48;11.25;;;4.90;;
81180;SDS011;70650;51.408;7.132;2023-09-08T04:47:14;10.18;;;4.72;;
81180;SDS011;70650;51.408;7.132;2023-09-08T04:49:39;10.02;;;4.40;;
81180;SDS011;70650;51.408;7.132;2023-09-08T04:52:05;12.07;;;4.95;;
81180;SDS011;70650;51.408;7.132;2023-09-08T04:54:31;9.77;;;4.80;;
81180;SDS011;70650;51.408;7.132;2023-09-08T04:56:56;9.40;;;4.70;;
81180;SDS011;70650;51.408;7.132;2023-09-08T04:59:22;8.90;;;4.65;;
81180;SDS011;70650;51.408;7.132;2023-09-08T05:01:48;13.25;;;4.88;;
81180;SDS011;70650;51.408;7.132;2023-09-08T05:04:14;10.90;;;4.78;;
81180;SDS011;70650;51.408;7.132;2023-09-08T05:06:39;10.30;;;4.88;;
81180;SDS011;70650;51.408;7.132;2023-09-08T05:09:05;9.77;;;4.90;;
81180;SDS011;70650;51.408;7.132;2023-09-08T05:11:32;11.18;;;4.30;;
81180;SDS011;70650;51.408;7.132;2023-09-08T05:13:57;14.45;;;4.90;;
81180;SDS011;70650;51.408;7.132;2023-09-08T05:16:24;9.82;;;4.82;;
81180;SDS011;70650;51.408;7.132;2023-09-08T05:19:05;11.55;;;4.70;;
81180;SDS011;70650;51.408;7.132;2023-09-08T05:21:31;9.75;;;4.90;;
81180;SDS011;70650;51.408;7.132;2023-09-08T05:23:57;9.98;;;5.20;;
81180;SDS011;70650;51.408;7.132;2023-09-08T05:26:24;9.43;;;4.68;;
81180;SDS011;70650;51.408;7.132;2023-09-08T05:28:49;9.63;;;4.78;;
81180;SDS011;70650;51.408;7.132;2023-09-08T05:31:15;10.05;;;4.85;;
81180;SDS011;70650;51.408;7.132;2023-09-08T05:33:40;9.05;;;4.80;;
81180;SDS011;70650;51.408;7.132;2023-09-08T05:36:05;11.37;;;5.00;;
81180;SDS011;70650;51.408;7.132;2023-09-08T05:38:31;15.18;;;5.05;;
81180;SDS011;70650;51.408;7.132;2023-09-08T05:40:56;10.20;;;4.65;;
81180;SDS011;70650;51.408;7.132;2023-09-08T05:43:23;9.10;;;4.63;;
81180;SDS011;70650;51.408;7.132;2023-09-08T05:45:50;11.23;;;4.85;;
81180;SDS011;70650;51.408;7.132;2023-09-08T05:48:15;9.25;;;4.10;;
81180;SDS011;70650;51.408;7.132;2023-09-08T05:50:41;10.75;;;4.47;;
81180;SDS011;70650;51.408;7.132;2023-09-08T05:53:07;10.20;;;4.35;;
81180;SDS011;70650;51.408;7.132;2023-09-08T05:55:32;10.73;;;4.95;;
81180;SDS011;70650;51.408;7.132;2023-09-08T05:57:59;10.43;;;4.53;;
81180;SDS011;70650;51.408;7.132;2023-09-08T06:00:25;11.07;;;4.70;;
81180;SDS011;70650;51.408;7.132;2023-09-08T06:02:51;8.55;;;4.32;;
81180;SDS011;70650;51.408;7.132;2023-09-08T06:05:16;8.20;;;4.07;;
81180;SDS011;70650;51.408;7.132;2023-09-08T06:07:43;9.20;;;4.25;;
81180;SDS011;70650;51.408;7.132;2023-09-08T06:10:09;10.23;;;4.63;;
81180;SDS011;70650;51.408;7.132;2023-09-08T06:12:35;8.55;;;4.40;;
81180;SDS011;70650;51.408;7.132;2023-09-08T06:15:01;10.02;;;4.35;;
81180;SDS011;70650;51.408;7.132;2023-09-08T06:17:28;9.63;;;4.28;;
81180;SDS011;70650;51.408;7.132;2023-09-08T06:19:54;10.40;;;4.32;;
81180;SDS011;70650;51.408;7.132;2023-09-08T06:22:20;9.52;;;4.85;;
81180;SDS011;70650;51.408;7.132;2023-09-08T06:24:45;8.40;;;4.15;;
81180;SDS011;70650;51.408;7.132;2023-09-08T06:27:13;7.97;;;4.13;;
81180;SDS011;70650;51.408;7.132;2023-09-08T06:29:40;10.10;;;4.50;;
81180;SDS011;70650;51.408;7.132;2023-09-08T06:32:08;8.93;;;4.20;;
81180;SDS011;70650;51.408;7.132;2023-09-08T06:34:36;10.18;;;4.35;;
81180;SDS011;70650;51.408;7.132;2023-09-08T06:37:01;8.07;;;4.15;;
81180;SDS011;70650;51.408;7.132;2023-09-08T06:39:27;10.27;;;4.50;;
81180;SDS011;70650;51.408;7.132;2023-09-08T06:41:53;9.23;;;4.03;;
81180;SDS011;70650;51.408;7.132;2023-09-08T06:44:20;9.00;;;4.05;;
81180;SDS011;70650;51.408;7.132;2023-09-08T06:46:45;9.82;;;4.20;;
81180;SDS011;70650;51.408;7.132;2023-09-08T06:49:11;8.75;;;4.22;;
81180;SDS011;70650;51.408;7.132;2023-09-08T06:51:36;11.48;;;4.22;;
81180;SDS011;70650;51.408;7.132;2023-09-08T06:54:03;9.52;;;4.18;;
81180;SDS011;70650;51.408;7.132;2023-09-08T06:56:29;7.43;;;3.58;;
81180;SDS011;70650;51.408;7.132;2023-09-08T06:58:55;7.30;;;4.47;;
81180;SDS011;70650;51.408;7.132;2023-09-08T07:01:22;8.13;;;4.15;;
81180;SDS011;70650;51.408;7.132;2023-09-08T07:03:48;8.95;;;4.35;;
81180;SDS011;70650;51.408;7.132;2023-09-08T07:06:15;8.35;;;4.20;;
81180;SDS011;70650;51.408;7.132;2023-09-08T07:08:41;7.80;;;4.00;;
81180;SDS011;70650;51.408;7.132;2023-09-08T07:11:07;8.80;;;4.30;;
81180;SDS011;70650;51.408;7.132;2023-09-08T07:13:32;10.32;;;4.20;;
81180;SDS011;70650;51.408;7.132;2023-09-08T07:15:58;7.85;;;3.70;;
81180;SDS011;70650;51.408;7.132;2023-09-08T07:18:23;8.10;;;4.13;;
81180;SDS011;70650;51.408;7.132;2023-09-08T07:20:49;7.97;;;3.67;;
81180;SDS011;70650;51.408;7.132;2023-09-08T07:23:15;9.13;;;3.85;;
81180;SDS011;70650;51.408;7.132;2023-09-08T07:25:48;6.60;;;3.30;;
81180;SDS011;70650;51.408;7.132;2023-09-08T07:28:14;8.93;;;3.90;;
81180;SDS011;70650;51.408;7.132;2023-09-08T07:30:41;8.55;;;3.72;;
81180;SDS011;70650;51.408;7.132;2023-09-08T07:33:07;9.50;;;4.15;;
81180;SDS011;70650;51.408;7.132;2023-09-08T07:35:36;7.40;;;3.50;;
81180;SDS011;70650;51.408;7.132;2023-09-08T07:38:02;8.38;;;3.67;;
81180;SDS011;70650;51.408;7.132;2023-09-08T07:40:28;7.72;;;3.83;;
81180;SDS011;70650;51.408;7.132;2023-09-08T07:42:53;6.97;;;3.53;;
81180;SDS011;70650;51.408;7.132;2023-09-08T07:45:18;9.63;;;4.17;;
81180;SDS011;70650;51.408;7.132;2023-09-08T07:47:44;7.17;;;3.43;;
81180;SDS011;70650;51.408;7.132;2023-09-08T07:50:17;10.35;;;4.03;;
81180;SDS011;70650;51.408;7.132;2023-09-08T07:52:45;7.10;;;3.58;;
81180;SDS011;70650;51.408;7.132;2023-09-08T07:55:10;7.38;;;3.45;;
81180;SDS011;70650;51.408;7.132;2023-09-08T07:57:36;7.07;;;3.50;;
81180;SDS011;70650;51.408;7.132;2023-09-08T08:00:02;8.40;;;3.42;;
81180;SDS011;70650;51.408;7.132;2023-09-08T08:02:29;8.25;;;3.75;;
81180;SDS011;70650;51.408;7.132;2023-09-08T08:04:55;9.23;;;3.90;;
81180;SDS011;70650;51.408;7.132;2023-09-08T08:07:20;7.32;;;3.72;;
81180;SDS011;70650;51.408;7.132;2023-09-08T08:09:45;7.57;;;3.63;;
81180;SDS011;70650;51.408;7.132;2023-09-08T08:12:11;6.57;;;3.60;;
81180;SDS011;70650;51.408;7.132;2023-09-08T08:14:36;6.73;;;3.50;;
81180;SDS011;70650;51.408;7.132;2023-09-08T08:17:04;6.30;;;3.30;;
81180;SDS011;70650;51.408;7.132;2023-09-08T08:19:30;8.97;;;3.40;;
81180;SDS011;70650;51.408;7.132;2023-09-08T08:21:55;7.13;;;3.30;;
81180;SDS011;70650;51.408;7.132;2023-09-08T08:24:23;6.32;;;3.30;;
81180;SDS011;70650;51.408;7.132;2023-09-08T08:26:49;8.35;;;3.08;;
81180;SDS011;70650;51.408;7.132;2023-09-08T08:29:16;7.22;;;2.95;;
81180;SDS011;70650;51.408;7.132;2023-09-08T08:31:42;7.68;;;3.10;;
81180;SDS011;70650;51.408;7.132;2023-09-08T08:34:08;8.10;;;3.28;;
81180;SDS011;70650;51.408;7.132;2023-09-08T08:36:34;6.50;;;3.00;;
81180;SDS011;70650;51.408;7.132;2023-09-08T08:39:00;7.60;;;3.10;;
81180;SDS011;70650;51.408;7.132;2023-09-08T08:41:25;6.53;;;3.30;;
81180;SDS011;70650;51.408;7.132;2023-09-08T08:43:51;6.60;;;3.08;;
81180;SDS011;70650;51.408;7.132;2023-09-08T08:46:20;6.30;;;2.83;;
81180;SDS011;70650;51.408;7.132;2023-09-08T08:48:48;9.30;;;3.35;;
81180;SDS011;70650;51.408;7.132;2023-09-08T08:51:15;7.70;;;3.30;;
81180;SDS011;70650;51.408;7.132;2023-09-08T08:53:45;7.25;;;3.15;;
81180;SDS011;70650;51.408;7.132;2023-09-08T08:56:12;6.53;;;3.05;;
81180;SDS011;70650;51.408;7.132;2023-09-08T08:58:39;6.68;;;3.25;;
81180;SDS011;70650;51.408;7.132;2023-09-08T09:01:05;9.00;;;4.05;;
81180;SDS011;70650;51.408;7.132;2023-09-08T09:03:32;6.95;;;3.30;;
81180;SDS011;70650;51.408;7.132;2023-09-08T09:06:02;8.25;;;3.28;;
81180;SDS011;70650;51.408;7.132;2023-09-08T09:08:29;6.63;;;3.85;;
81180;SDS011;70650;51.408;7.132;2023-09-08T09:10:56;10.70;;;3.50;;
81180;SDS011;70650;51.408;7.132;2023-09-08T09:13:21;5.90;;;3.03;;
81180;SDS011;70650;51.408;7.132;2023-09-08T09:15:50;6.07;;;3.30;;
81180;SDS011;70650;51.408;7.132;2023-09-08T09:18:52;6.32;;;3.38;;
81180;SDS011;70650;51.408;7.132;2023-09-08T09:21:19;8.05;;;3.60;;
81180;SDS011;70650;51.408;7.132;2023-09-08T09:23:44;6.47;;;3.00;;
81180;SDS011;70650;51.408;7.132;2023-09-08T09:26:10;7.10;;;3.57;;
81180;SDS011;70650;51.408;7.132;2023-09-08T09:28:47;8.50;;;3.80;;
81180;SDS011;70650;51.408;7.132;2023-09-08T09:31:14;7.05;;;3.83;;
81180;SDS011;70650;51.408;7.132;2023-09-08T09:33:39;7.93;;;3.47;;
81180;SDS011;70650;51.408;7.132;2023-09-08T09:36:05;7.32;;;3.80;;
81180;SDS011;70650;51.408;7.132;2023-09-08T09:38:30;6.65;;;3.53;;
81180;SDS011;70650;51.408;7.132;2023-09-08T09:40:57;7.13;;;3.20;;
81180;SDS011;70650;51.408;7.132;2023-09-08T09:43:23;7.55;;;3.45;;
81180;SDS011;70650;51.408;7.132;2023-09-08T09:45:49;7.00;;;3.40;;
81180;SDS011;70650;51.408;7.132;2023-09-08T09:48:15;8.02;;;3.40;;
81180;SDS011;70650;51.408;7.132;2023-09-08T09:50:41;7.13;;;3.85;;
81180;SDS011;70650;51.408;7.132;2023-09-08T09:53:09;7.00;;;3.72;;
81180;SDS011;70650;51.408;7.132;2023-09-08T09:55:39;5.82;;;3.15;;
81180;SDS011;70650;51.408;7.132;2023-09-08T09:58:06;6.65;;;3.20;;
81180;SDS011;70650;51.408;7.132;2023-09-08T10:00:33;7.53;;;3.42;;
81180;SDS011;70650;51.408;7.132;2023-09-08T10:03:01;6.70;;;3.25;;
81180;SDS011;70650;51.408;7.132;2023-09-08T10:05:27;6.10;;;3.42;;
81180;SDS011;70650;51.408;7.132;2023-09-08T10:07:54;7.53;;;3.40;;
81180;SDS011;70650;51.408;7.132;2023-09-08T10:10:21;6.93;;;3.10;;
81180;SDS011;70650;51.408;7.132;2023-09-08T10:12:53;8.27;;;4.05;;
81180;SDS011;70650;51.408;7.132;2023-09-08T10:15:23;7.00;;;3.35;;
81180;SDS011;70650;51.408;7.132;2023-09-08T10:17:53;6.45;;;3.33;;
81180;SDS011;70650;51.408;7.132;2023-09-08T10:20:24;7.18;;;3.38;;
81180;SDS011;70650;51.408;7.132;2023-09-08T10:22:52;6.95;;;3.65;;
81180;SDS011;70650;51.408;7.132;2023-09-08T10:25:21;6.00;;;3.17;;
81180;SDS011;70650;51.408;7.132;2023-09-08T10:27:50;6.65;;;3.47;;
81180;SDS011;70650;51.408;7.132;2023-09-08T10:30:15;6.07;;;3.58;;
81180;SDS011;70650;51.408;7.132;2023-09-08T10:32:44;6.88;;;3.92;;
81180;SDS011;70650;51.408;7.132;2023-09-08T10:35:10;7.32;;;3.90;;
81180;SDS011;70650;51.408;7.132;2023-09-08T10:37:40;6.63;;;3.88;;
81180;SDS011;70650;51.408;7.132;2023-09-08T10:40:19;6.57;;;3.85;;
81180;SDS011;70650;51.408;7.132;2023-09-08T10:42:45;6.30;;;3.22;;
81180;SDS011;70650;51.408;7.132;2023-09-08T10:45:15;8.50;;;3.58;;
81180;SDS011;70650;51.408;7.132;2023-09-08T10:47:54;6.72;;;3.65;;
81180;SDS011;70650;51.408;7.132;2023-09-08T10:50:35;6.93;;;3.67;;
81180;SDS011;70650;51.408;7.132;2023-09-08T10:53:07;6.72;;;4.28;;
81180;SDS011;70650;51.408;7.132;2023-09-08T10:55:46;7.10;;;3.70;;
81180;SDS011;70650;51.408;7.132;2023-09-08T10:58:19;6.60;;;3.72;;
81180;SDS011;70650;51.408;7.132;2023-09-08T11:00:51;7.45;;;4.30;;
81180;SDS011;70650;51.408;7.132;2023-09-08T11:05:51;7.13;;;3.80;;
81180;SDS011;70650;51.408;7.132;2023-09-08T11:08:17;7.20;;;3.80;;
81180;SDS011;70650;51.408;7.132;2023-09-08T11:10:44;7.28;;;4.75;;
81180;SDS011;70650;51.408;7.132;2023-09-08T11:13:09;6.53;;;3.83;;
81180;SDS011;70650;51.408;7.132;2023-09-08T11:15:38;6.93;;;3.88;;
81180;SDS011;70650;51.408;7.132;2023-09-08T11:18:04;7.78;;;3.78;;
81180;SDS011;70650;51.408;7.132;2023-09-08T11:20:34;7.80;;;4.45;;
81180;SDS011;70650;51.408;7.132;2023-09-08T11:23:00;6.80;;;4.03;;
81180;SDS011;70650;51.408;7.132;2023-09-08T11:25:25;7.38;;;3.75;;
81180;SDS011;70650;51.408;7.132;2023-09-08T11:27:52;7.63;;;3.72;;
81180;SDS011;70650;51.408;7.132;2023-09-08T11:30:19;6.65;;;4.25;;
81180;SDS011;70650;51.408;7.132;2023-09-08T11:32:45;8.02;;;3.65;;
81180;SDS011;70650;51.408;7.132;2023-09-08T11:35:10;6.97;;;3.75;;
81180;SDS011;70650;51.408;7.132;2023-09-08T11:37:36;6.97;;;4.00;;
81180;SDS011;70650;51.408;7.132;2023-09-08T11:40:03;6.95;;;3.78;;
81180;SDS011;70650;51.408;7.132;2023-09-08T11:42:35;7.93;;;4.40;;
81180;SDS011;70650;51.408;7.132;2023-09-08T11:45:00;7.50;;;3.28;;
81180;SDS011;70650;51.408;7.132;2023-09-08T11:47:28;8.57;;;5.03;;
81180;SDS011;70650;51.408;7.132;2023-09-08T11:49:54;8.55;;;4.22;;
81180;SDS011;70650;51.408;7.132;2023-09-08T11:52:22;7.60;;;4.27;;
81180;SDS011;70650;51.408;7.132;2023-09-08T11:54:48;6.32;;;4.10;;
81180;SDS011;70650;51.408;7.132;2023-09-08T11:57:16;7.97;;;4.30;;
81180;SDS011;70650;51.408;7.132;2023-09-08T11:59:42;8.13;;;4.30;;
81180;SDS011;70650;51.408;7.132;2023-09-08T12:02:10;10.35;;;7.53;;
81180;SDS011;70650;51.408;7.132;2023-09-08T12:04:35;8.00;;;4.78;;
81180;SDS011;70650;51.408;7.132;2023-09-08T12:07:01;8.68;;;3.97;;
81180;SDS011;70650;51.408;7.132;2023-09-08T12:09:27;6.50;;;4.22;;
81180;SDS011;70650;51.408;7.132;2023-09-08T12:11:53;8.05;;;4.90;;
81180;SDS011;70650;51.408;7.132;2023-09-08T12:14:19;7.03;;;4.80;;
81180;SDS011;70650;51.408;7.132;2023-09-08T12:16:45;6.70;;;4.75;;
81180;SDS011;70650;51.408;7.132;2023-09-08T12:19:29;6.47;;;4.25;;
81180;SDS011;70650;51.408;7.132;2023-09-08T12:21:56;7.47;;;4.78;;
81180;SDS011;70650;51.408;7.132;2023-09-08T12:27:27;7.47;;;4.60;;
81180;SDS011;70650;51.408;7.132;2023-09-08T12:29:53;7.15;;;4.57;;
81180;SDS011;70650;51.408;7.132;2023-09-08T12:32:22;7.03;;;4.38;;
81180;SDS011;70650;51.408;7.132;2023-09-08T12:34:48;6.25;;;4.47;;
81180;SDS011;70650;51.408;7.132;2023-09-08T12:37:13;6.85;;;4.70;;
81180;SDS011;70650;51.408;7.132;2023-09-08T12:39:39;8.65;;;6.40;;
81180;SDS011;70650;51.408;7.132;2023-09-08T12:42:05;6.28;;;4.05;;
81180;SDS011;70650;51.408;7.132;2023-09-08T12:44:31;7.10;;;4.88;;
81180;SDS011;70650;51.408;7.132;2023-09-08T12:49:56;6.78;;;4.90;;
81180;SDS011;70650;51.408;7.132;2023-09-08T12:52:21;7.53;;;5.47;;
81180;SDS011;70650;51.408;7.132;2023-09-08T12:54:46;7.20;;;4.90;;
81180;SDS011;70650;51.408;7.132;2023-09-08T12:57:12;7.83;;;5.77;;
81180;SDS011;70650;51.408;7.132;2023-09-08T12:59:39;8.27;;;5.72;;
81180;SDS011;70650;51.408;7.132;2023-09-08T13:02:04;7.77;;;4.73;;
81180;SDS011;70650;51.408;7.132;2023-09-08T13:04:29;6.70;;;5.67;;
81180;SDS011;70650;51.408;7.132;2023-09-08T13:06:55;7.78;;;6.03;;
81180;SDS011;70650;51.408;7.132;2023-09-08T13:09:22;7.50;;;5.18;;
81180;SDS011;70650;51.408;7.132;2023-09-08T13:11:47;7.50;;;5.72;;
81180;SDS011;70650;51.408;7.132;2023-09-08T13:14:19;7.20;;;5.85;;
81180;SDS011;70650;51.408;7.132;2023-09-08T13:16:44;7.43;;;6.65;;
81180;SDS011;70650;51.408;7.132;2023-09-08T13:19:10;7.60;;;5.97;;
81180;SDS011;70650;51.408;7.132;2023-09-08T13:21:35;7.72;;;6.18;;
81180;SDS011;70650;51.408;7.132;2023-09-08T13:24:03;9.90;;;7.90;;
81180;SDS011;70650;51.408;7.132;2023-09-08T13:26:31;6.68;;;4.90;;
81180;SDS011;70650;51.408;7.132;2023-09-08T13:28:56;6.90;;;4.90;;
81180;SDS011;70650;51.408;7.132;2023-09-08T13:31:21;8.13;;;6.63;;
81180;SDS011;70650;51.408;7.132;2023-09-08T13:33:48;7.20;;;5.38;;
81180;SDS011;70650;51.408;7.132;2023-09-08T13:36:13;9.37;;;6.03;;
81180;SDS011;70650;51.408;7.132;2023-09-08T13:38:38;7.72;;;5.55;;
81180;SDS011;70650;51.408;7.132;2023-09-08T13:41:04;7.70;;;6.00;;
81180;SDS011;70650;51.408;7.132;2023-09-08T13:43:29;7.50;;;5.83;;
81180;SDS011;70650;51.408;7.132;2023-09-08T13:45:55;8.20;;;7.23;;
81180;SDS011;70650;51.408;7.132;2023-09-08T13:48:20;8.52;;;6.22;;
81180;SDS011;70650;51.408;7.132;2023-09-08T13:50:45;9.07;;;6.33;;
81180;SDS011;70650;51.408;7.132;2023-09-08T13:53:11;7.23;;;5.43;;
81180;SDS011;70650;51.408;7.132;2023-09-08T13:55:36;8.88;;;5.35;;
81180;SDS011;70650;51.408;7.132;2023-09-08T13:58:01;8.53;;;6.23;;
81180;SDS011;70650;51.408;7.132;2023-09-08T14:00:27;7.97;;;6.47;;
81180;SDS011;70650;51.408;7.132;2023-09-08T14:02:52;7.43;;;6.17;;
81180;SDS011;70650;51.408;7.132;2023-09-08T14:05:17;8.00;;;6.40;;
81180;SDS011;70650;51.408;7.132;2023-09-08T14:07:44;11.25;;;9.57;;
81180;SDS011;70650;51.408;7.132;2023-09-08T14:10:12;8.93;;;5.93;;
81180;SDS011;70650;51.408;7.132;2023-09-08T14:12:37;8.23;;;6.40;;
81180;SDS011;70650;51.408;7.132;2023-09-08T14:15:03;7.73;;;6.33;;
81180;SDS011;70650;51.408;7.132;2023-09-08T14:17:29;7.50;;;6.70;;
81180;SDS011;70650;51.408;7.132;2023-09-08T14:19:56;7.68;;;6.93;;
81180;SDS011;70650;51.408;7.132;2023-09-08T14:22:21;7.25;;;6.55;;
81180;SDS011;70650;51.408;7.132;2023-09-08T14:24:46;9.02;;;8.13;;
81180;SDS011;70650;51.408;7.132;2023-09-08T14:27:14;8.45;;;7.55;;
81180;SDS011;70650;51.408;7.132;2023-09-08T14:29:40;8.80;;;7.07;;
81180;SDS011;70650;51.408;7.132;2023-09-08T14:32:12;8.20;;;6.78;;
81180;SDS011;70650;51.408;7.132;2023-09-08T14:34:40;8.63;;;7.05;;
81180;SDS011;70650;51.408;7.132;2023-09-08T14:37:05;8.05;;;6.43;;
81180;SDS011;70650;51.408;7.132;2023-09-08T14:39:32;8.98;;;8.10;;
81180;SDS011;70650;51.408;7.132;2023-09-08T14:41:57;8.38;;;7.57;;
81180;SDS011;70650;51.408;7.132;2023-09-08T14:44:23;10.18;;;9.20;;
81180;SDS011;70650;51.408;7.132;2023-09-08T14:46:48;9.95;;;9.02;;
81180;SDS011;70650;51.408;7.132;2023-09-08T14:49:14;8.55;;;7.25;;
81180;SDS011;70650;51.408;7.132;2023-09-08T14:51:40;9.27;;;8.38;;